sensor_id;sensor_type;location;lat;lon;timestamp;temperature;humidity
22153;DHT22;11242;50.536;12.688;2022-07-30T00:02:07;16.00;99.90
22153;DHT22;11242;50.536;12.688;2022-07-30T00:04:32;16.00;99.90
22153;DHT22;11242;50.536;12.688;2022-07-30T00:06:59;16.00;99.90
22153;DHT22;11242;50.536;12.688;2022-07-30T00:09:24;15.90;99.90
22153;DHT22;11242;50.536;12.688;2022-07-30T00:11:50;15.90;99.90
22153;DHT22;11242;50.536;12.688;2022-07-30T00:14:15;15.80;99.90
22153;DHT22;11242;50.536;12.688;2022-07-30T00:16:41;15.80;99.90
22153;DHT22;11242;50.536;12.688;2022-07-30T00:19:07;15.80;99.90
22153;DHT22;11242;50.536;12.688;2022-07-30T00:21:32;15.90;99.90
22153;DHT22;11242;50.536;12.688;2022-07-30T00:23:58;15.90;99.90
22153;DHT22;11242;50.536;12.688;2022-07-30T00:26:23;16.00;99.90
22153;DHT22;11242;50.536;12.688;2022-07-30T00:28:49;16.00;99.90
22153;DHT22;11242;50.536;12.688;2022-07-30T00:31:15;16.10;99.90
22153;DHT22;11242;50.536;12.688;2022-07-30T00:33:40;16.10;99.90
22153;DHT22;11242;50.536;12.688;2022-07-30T00:36:06;16.10;99.90
22153;DHT22;11242;50.536;12.688;2022-07-30T00:38:32;16.20;99.90
22153;DHT22;11242;50.536;12.688;2022-07-30T00:40:58;16.10;99.90
22153;DHT22;11242;50.536;12.688;2022-07-30T00:43:23;16.10;99.90
22153;DHT22;11242;50.536;12.688;2022-07-30T00:45:49;16.10;99.90
22153;DHT22;11242;50.536;12.688;2022-07-30T00:48:15;16.00;99.90
22153;DHT22;11242;50.536;12.688;2022-07-30T00:50:41;16.00;99.90
22153;DHT22;11242;50.536;12.688;2022-07-30T00:53:07;16.00;99.90
22153;DHT22;11242;50.536;12.688;2022-07-30T00:55:34;16.00;99.90
22153;DHT22;11242;50.536;12.688;2022-07-30T00:57:59;16.10;99.90
22153;DHT22;11242;50.536;12.688;2022-07-30T01:00:25;16.00;99.90
22153;DHT22;11242;50.536;12.688;2022-07-30T01:02:51;15.90;99.90
22153;DHT22;11242;50.536;12.688;2022-07-30T01:05:17;16.00;99.90
22153;DHT22;11242;50.536;12.688;2022-07-30T01:07:43;15.90;99.90
22153;DHT22;11242;50.536;12.688;2022-07-30T01:10:11;16.00;99.90
22153;DHT22;11242;50.536;12.688;2022-07-30T01:12:37;16.10;99.90
22153;DHT22;11242;50.536;12.688;2022-07-30T01:15:05;16.10;99.90
22153;DHT22;11242;50.536;12.688;2022-07-30T01:17:31;15.90;99.90
22153;DHT22;11242;50.536;12.688;2022-07-30T01:20:17;16.00;99.90
22153;DHT22;11242;50.536;12.688;2022-07-30T01:23:00;15.90;99.90
22153;DHT22;11242;50.536;12.688;2022-07-30T01:25:50;16.00;99.90
22153;DHT22;11242;50.536;12.688;2022-07-30T01:28:20;16.00;99.90
22153;DHT22;11242;50.536;12.688;2022-07-30T01:30:47;16.00;99.90
22153;DHT22;11242;50.536;12.688;2022-07-30T01:33:14;16.10;99.90
22153;DHT22;11242;50.536;12.688;2022-07-30T01:35:43;16.10;99.90
22153;DHT22;11242;50.536;12.688;2022-07-30T01:38:09;16.20;99.90
22153;DHT22;11242;50.536;12.688;2022-07-30T01:40:37;16.20;99.90
22153;DHT22;11242;50.536;12.688;2022-07-30T01:43:05;16.10;99.90
22153;DHT22;11242;50.536;12.688;2022-07-30T01:45:33;16.10;99.90
22153;DHT22;11242;50.536;12.688;2022-07-30T01:48:02;16.10;99.90
22153;DHT22;11242;50.536;12.688;2022-07-30T01:50:30;16.10;99.90
22153;DHT22;11242;50.536;12.688;2022-07-30T01:52:57;16.00;99.90
22153;DHT22;11242;50.536;12.688;2022-07-30T01:55:35;16.00;99.90
22153;DHT22;11242;50.536;12.688;2022-07-30T01:58:05;16.00;99.90
22153;DHT22;11242;50.536;12.688;2022-07-30T02:00:35;15.90;99.90
22153;DHT22;11242;50.536;12.688;2022-07-30T02:03:04;15.90;99.90
22153;DHT22;11242;50.536;12.688;2022-07-30T02:05:31;15.90;99.90
22153;DHT22;11242;50.536;12.688;2022-07-30T02:08:05;16.00;99.90
22153;DHT22;11242;50.536;12.688;2022-07-30T02:10:41;16.00;99.90
22153;DHT22;11242;50.536;12.688;2022-07-30T02:13:21;16.00;99.90
22153;DHT22;11242;50.536;12.688;2022-07-30T02:15:56;15.90;99.90
22153;DHT22;11242;50.536;12.688;2022-07-30T02:18:30;15.80;99.90
22153;DHT22;11242;50.536;12.688;2022-07-30T02:21:04;15.80;99.90
22153;DHT22;11242;50.536;12.688;2022-07-30T02:23:34;15.80;99.90
22153;DHT22;11242;50.536;12.688;2022-07-30T02:26:01;15.80;99.90
22153;DHT22;11242;50.536;12.688;2022-07-30T02:28:29;15.80;99.90
22153;DHT22;11242;50.536;12.688;2022-07-30T02:30:58;15.90;99.90
22153;DHT22;11242;50.536;12.688;2022-07-30T02:33:35;15.90;99.90
22153;DHT22;11242;50.536;12.688;2022-07-30T02:36:02;15.90;99.90
22153;DHT22;11242;50.536;12.688;2022-07-30T02:38:28;15.90;99.90
22153;DHT22;11242;50.536;12.688;2022-07-30T02:40:56;15.80;99.90
22153;DHT22;11242;50.536;12.688;2022-07-30T02:43:24;15.80;99.90
22153;DHT22;11242;50.536;12.688;2022-07-30T02:45:53;15.70;99.90
22153;DHT22;11242;50.536;12.688;2022-07-30T02:48:20;15.60;99.90
22153;DHT22;11242;50.536;12.688;2022-07-30T02:50:50;15.70;99.90
22153;DHT22;11242;50.536;12.688;2022-07-30T02:53:17;15.80;99.90
22153;DHT22;11242;50.536;12.688;2022-07-30T02:55:44;15.80;99.90
22153;DHT22;11242;50.536;12.688;2022-07-30T02:58:11;15.80;99.90
22153;DHT22;11242;50.536;12.688;2022-07-30T03:00:41;15.90;99.90
22153;DHT22;11242;50.536;12.688;2022-07-30T03:03:09;15.90;99.90
22153;DHT22;11242;50.536;12.688;2022-07-30T03:05:37;15.90;99.90
22153;DHT22;11242;50.536;12.688;2022-07-30T03:08:04;15.90;99.90
22153;DHT22;11242;50.536;12.688;2022-07-30T03:10:32;15.90;99.90
22153;DHT22;11242;50.536;12.688;2022-07-30T03:12:59;15.90;99.90
22153;DHT22;11242;50.536;12.688;2022-07-30T03:15:26;15.80;99.90
22153;DHT22;11242;50.536;12.688;2022-07-30T03:17:53;15.80;99.90
22153;DHT22;11242;50.536;12.688;2022-07-30T03:20:23;15.80;99.90
22153;DHT22;11242;50.536;12.688;2022-07-30T03:22:51;15.90;99.90
22153;DHT22;11242;50.536;12.688;2022-07-30T03:25:24;15.90;99.90
22153;DHT22;11242;50.536;12.688;2022-07-30T03:27:50;15.80;99.90
22153;DHT22;11242;50.536;12.688;2022-07-30T03:30:16;15.80;99.90
22153;DHT22;11242;50.536;12.688;2022-07-30T03:32:42;15.80;99.90
22153;DHT22;11242;50.536;12.688;2022-07-30T03:35:09;15.80;99.90
22153;DHT22;11242;50.536;12.688;2022-07-30T03:37:36;15.70;99.90
22153;DHT22;11242;50.536;12.688;2022-07-30T03:40:05;15.70;99.90
22153;DHT22;11242;50.536;12.688;2022-07-30T03:42:32;15.70;99.90
22153;DHT22;11242;50.536;12.688;2022-07-30T03:45:04;15.70;99.90
22153;DHT22;11242;50.536;12.688;2022-07-30T03:47:32;15.70;99.90
22153;DHT22;11242;50.536;12.688;2022-07-30T03:50:00;15.80;99.90
22153;DHT22;11242;50.536;12.688;2022-07-30T03:52:26;15.70;99.90
22153;DHT22;11242;50.536;12.688;2022-07-30T03:54:53;15.70;99.90
22153;DHT22;11242;50.536;12.688;2022-07-30T03:57:42;15.80;99.90
22153;DHT22;11242;50.536;12.688;2022-07-30T04:00:12;15.90;99.90
22153;DHT22;11242;50.536;12.688;2022-07-30T04:02:45;15.90;99.90
22153;DHT22;11242;50.536;12.688;2022-07-30T04:05:30;15.90;99.90
22153;DHT22;11242;50.536;12.688;2022-07-30T04:07:59;15.90;99.90
22153;DHT22;11242;50.536;12.688;2022-07-30T04:10:26;15.80;99.90
22153;DHT22;11242;50.536;12.688;2022-07-30T04:13:15;15.80;99.90
22153;DHT22;11242;50.536;12.688;2022-07-30T04:15:55;15.80;99.90
22153;DHT22;11242;50.536;12.688;2022-07-30T04:18:23;15.80;99.90
22153;DHT22;11242;50.536;12.688;2022-07-30T04:20:52;15.70;99.90
22153;DHT22;11242;50.536;12.688;2022-07-30T04:23:19;15.80;99.90
22153;DHT22;11242;50.536;12.688;2022-07-30T04:25:45;15.80;99.90
22153;DHT22;11242;50.536;12.688;2022-07-30T04:28:11;15.80;99.90
22153;DHT22;11242;50.536;12.688;2022-07-30T04:30:38;15.90;99.90
22153;DHT22;11242;50.536;12.688;2022-07-30T04:33:04;15.90;99.90
22153;DHT22;11242;50.536;12.688;2022-07-30T04:36:08;15.90;99.90
22153;DHT22;11242;50.536;12.688;2022-07-30T04:38:36;15.90;99.90
22153;DHT22;11242;50.536;12.688;2022-07-30T04:41:02;15.90;99.90
22153;DHT22;11242;50.536;12.688;2022-07-30T04:43:35;15.90;99.90
22153;DHT22;11242;50.536;12.688;2022-07-30T04:46:00;15.90;99.90
22153;DHT22;11242;50.536;12.688;2022-07-30T04:48:27;15.90;99.90
22153;DHT22;11242;50.536;12.688;2022-07-30T04:51:22;15.90;99.90
22153;DHT22;11242;50.536;12.688;2022-07-30T04:53:50;15.90;99.90
22153;DHT22;11242;50.536;12.688;2022-07-30T04:56:19;15.80;99.90
22153;DHT22;11242;50.536;12.688;2022-07-30T04:58:46;15.90;99.90
22153;DHT22;11242;50.536;12.688;2022-07-30T05:01:18;16.00;99.90
22153;DHT22;11242;50.536;12.688;2022-07-30T05:03:46;16.10;99.90
22153;DHT22;11242;50.536;12.688;2022-07-30T05:06:13;16.00;99.90
22153;DHT22;11242;50.536;12.688;2022-07-30T05:08:39;16.10;99.90
22153;DHT22;11242;50.536;12.688;2022-07-30T05:11:12;16.10;99.90
22153;DHT22;11242;50.536;12.688;2022-07-30T05:13:45;16.00;99.90
22153;DHT22;11242;50.536;12.688;2022-07-30T05:16:15;16.00;99.90
22153;DHT22;11242;50.536;12.688;2022-07-30T05:18:41;15.90;99.90
22153;DHT22;11242;50.536;12.688;2022-07-30T05:21:07;15.90;99.90
22153;DHT22;11242;50.536;12.688;2022-07-30T05:23:35;15.80;99.90
22153;DHT22;11242;50.536;12.688;2022-07-30T05:26:09;15.80;99.90
22153;DHT22;11242;50.536;12.688;2022-07-30T05:28:39;15.80;99.90
22153;DHT22;11242;50.536;12.688;2022-07-30T05:31:07;15.80;99.90
22153;DHT22;11242;50.536;12.688;2022-07-30T05:33:33;15.90;99.90
22153;DHT22;11242;50.536;12.688;2022-07-30T05:35:58;15.80;99.90
22153;DHT22;11242;50.536;12.688;2022-07-30T05:38:25;15.80;99.90
22153;DHT22;11242;50.536;12.688;2022-07-30T05:41:16;15.90;99.90
22153;DHT22;11242;50.536;12.688;2022-07-30T05:44:05;15.80;99.90
22153;DHT22;11242;50.536;12.688;2022-07-30T05:46:31;15.80;99.90
22153;DHT22;11242;50.536;12.688;2022-07-30T05:48:57;15.80;99.90
22153;DHT22;11242;50.536;12.688;2022-07-30T05:51:23;15.80;99.90
22153;DHT22;11242;50.536;12.688;2022-07-30T05:53:49;15.80;99.90
22153;DHT22;11242;50.536;12.688;2022-07-30T05:56:32;15.80;99.90
22153;DHT22;11242;50.536;12.688;2022-07-30T05:59:05;15.70;99.90
22153;DHT22;11242;50.536;12.688;2022-07-30T06:01:51;15.70;99.90
22153;DHT22;11242;50.536;12.688;2022-07-30T06:04:23;15.70;99.90
22153;DHT22;11242;50.536;12.688;2022-07-30T06:06:53;15.70;99.90
22153;DHT22;11242;50.536;12.688;2022-07-30T06:09:21;15.70;99.90
22153;DHT22;11242;50.536;12.688;2022-07-30T06:11:46;15.70;99.90
22153;DHT22;11242;50.536;12.688;2022-07-30T06:14:12;15.80;99.90
22153;DHT22;11242;50.536;12.688;2022-07-30T06:16:37;15.90;99.90
22153;DHT22;11242;50.536;12.688;2022-07-30T06:19:04;15.90;99.90
22153;DHT22;11242;50.536;12.688;2022-07-30T06:21:39;15.90;99.90
22153;DHT22;11242;50.536;12.688;2022-07-30T06:24:09;16.00;99.90
22153;DHT22;11242;50.536;12.688;2022-07-30T06:26:39;16.10;99.90
22153;DHT22;11242;50.536;12.688;2022-07-30T06:29:06;16.20;99.90
22153;DHT22;11242;50.536;12.688;2022-07-30T06:31:32;16.20;99.90
22153;DHT22;11242;50.536;12.688;2022-07-30T06:33:58;16.20;99.90
22153;DHT22;11242;50.536;12.688;2022-07-30T06:36:27;16.20;99.90
22153;DHT22;11242;50.536;12.688;2022-07-30T06:38:58;16.30;99.90
22153;DHT22;11242;50.536;12.688;2022-07-30T06:41:39;16.30;99.90
22153;DHT22;11242;50.536;12.688;2022-07-30T06:44:04;16.30;99.90
22153;DHT22;11242;50.536;12.688;2022-07-30T06:46:48;16.30;99.90
22153;DHT22;11242;50.536;12.688;2022-07-30T06:49:16;16.20;99.90
22153;DHT22;11242;50.536;12.688;2022-07-30T06:51:41;16.10;99.90
22153;DHT22;11242;50.536;12.688;2022-07-30T06:54:07;16.10;99.90
22153;DHT22;11242;50.536;12.688;2022-07-30T06:56:35;16.10;99.90
22153;DHT22;11242;50.536;12.688;2022-07-30T06:59:03;16.10;99.90
22153;DHT22;11242;50.536;12.688;2022-07-30T07:01:47;16.10;99.90
22153;DHT22;11242;50.536;12.688;2022-07-30T07:04:13;16.00;99.90
22153;DHT22;11242;50.536;12.688;2022-07-30T07:06:39;16.00;99.90
22153;DHT22;11242;50.536;12.688;2022-07-30T07:09:06;16.00;99.90
22153;DHT22;11242;50.536;12.688;2022-07-30T07:11:42;15.90;99.90
22153;DHT22;11242;50.536;12.688;2022-07-30T07:14:10;15.90;99.90
22153;DHT22;11242;50.536;12.688;2022-07-30T07:16:36;15.90;99.90
22153;DHT22;11242;50.536;12.688;2022-07-30T07:19:21;16.00;99.90
22153;DHT22;11242;50.536;12.688;2022-07-30T07:21:48;16.10;99.90
22153;DHT22;11242;50.536;12.688;2022-07-30T07:24:14;16.10;99.90
22153;DHT22;11242;50.536;12.688;2022-07-30T07:26:50;16.20;99.90
22153;DHT22;11242;50.536;12.688;2022-07-30T07:29:16;16.20;99.90
22153;DHT22;11242;50.536;12.688;2022-07-30T07:31:42;16.10;99.90
22153;DHT22;11242;50.536;12.688;2022-07-30T07:34:08;16.10;99.90
22153;DHT22;11242;50.536;12.688;2022-07-30T07:36:34;16.10;99.90
22153;DHT22;11242;50.536;12.688;2022-07-30T07:39:01;16.20;99.90
22153;DHT22;11242;50.536;12.688;2022-07-30T07:41:27;16.20;99.90
22153;DHT22;11242;50.536;12.688;2022-07-30T07:43:52;16.10;99.90
22153;DHT22;11242;50.536;12.688;2022-07-30T07:46:25;16.10;99.90
22153;DHT22;11242;50.536;12.688;2022-07-30T07:48:51;16.10;99.90
22153;DHT22;11242;50.536;12.688;2022-07-30T07:51:21;16.10;99.90
22153;DHT22;11242;50.536;12.688;2022-07-30T07:53:46;16.20;99.90
22153;DHT22;11242;50.536;12.688;2022-07-30T07:56:12;16.20;99.90
22153;DHT22;11242;50.536;12.688;2022-07-30T07:58:39;16.20;99.90
22153;DHT22;11242;50.536;12.688;2022-07-30T08:01:05;16.20;99.90
22153;DHT22;11242;50.536;12.688;2022-07-30T08:03:54;16.10;99.90
22153;DHT22;11242;50.536;12.688;2022-07-30T08:06:42;16.10;99.90
22153;DHT22;11242;50.536;12.688;2022-07-30T08:09:27;16.20;99.90
22153;DHT22;11242;50.536;12.688;2022-07-30T08:12:11;16.10;99.90
22153;DHT22;11242;50.536;12.688;2022-07-30T08:15:06;16.20;99.90
22153;DHT22;11242;50.536;12.688;2022-07-30T08:17:49;16.20;99.90
22153;DHT22;11242;50.536;12.688;2022-07-30T08:20:18;16.40;99.90
22153;DHT22;11242;50.536;12.688;2022-07-30T08:22:44;16.50;99.90
22153;DHT22;11242;50.536;12.688;2022-07-30T08:25:10;16.60;99.90
22153;DHT22;11242;50.536;12.688;2022-07-30T08:27:36;16.70;99.90
22153;DHT22;11242;50.536;12.688;2022-07-30T08:30:06;16.70;99.90
22153;DHT22;11242;50.536;12.688;2022-07-30T08:32:32;16.80;99.90
22153;DHT22;11242;50.536;12.688;2022-07-30T08:34:59;16.80;99.90
22153;DHT22;11242;50.536;12.688;2022-07-30T08:37:24;16.80;99.90
22153;DHT22;11242;50.536;12.688;2022-07-30T08:39:51;16.80;99.90
22153;DHT22;11242;50.536;12.688;2022-07-30T08:42:17;16.80;99.90
22153;DHT22;11242;50.536;12.688;2022-07-30T08:44:44;16.80;99.90
22153;DHT22;11242;50.536;12.688;2022-07-30T08:47:11;16.80;99.90
22153;DHT22;11242;50.536;12.688;2022-07-30T08:50:00;17.00;99.90
22153;DHT22;11242;50.536;12.688;2022-07-30T08:52:31;17.50;99.90
22153;DHT22;11242;50.536;12.688;2022-07-30T08:54:59;17.80;99.90
22153;DHT22;11242;50.536;12.688;2022-07-30T08:57:28;18.10;99.90
22153;DHT22;11242;50.536;12.688;2022-07-30T08:59:55;18.20;99.90
22153;DHT22;11242;50.536;12.688;2022-07-30T09:02:21;18.30;99.90
22153;DHT22;11242;50.536;12.688;2022-07-30T09:04:57;18.40;99.90
22153;DHT22;11242;50.536;12.688;2022-07-30T09:07:23;18.20;99.90
22153;DHT22;11242;50.536;12.688;2022-07-30T09:09:49;18.20;99.90
22153;DHT22;11242;50.536;12.688;2022-07-30T09:12:34;18.30;99.90
22153;DHT22;11242;50.536;12.688;2022-07-30T09:17:55;18.30;99.90
22153;DHT22;11242;50.536;12.688;2022-07-30T09:20:33;18.20;99.90
22153;DHT22;11242;50.536;12.688;2022-07-30T09:23:02;18.00;99.90
22153;DHT22;11242;50.536;12.688;2022-07-30T09:26:00;17.90;99.90
22153;DHT22;11242;50.536;12.688;2022-07-30T09:28:44;17.70;99.90
22153;DHT22;11242;50.536;12.688;2022-07-30T09:31:29;17.60;99.90
22153;DHT22;11242;50.536;12.688;2022-07-30T09:37:01;17.90;99.90
22153;DHT22;11242;50.536;12.688;2022-07-30T09:39:45;18.30;99.90
22153;DHT22;11242;50.536;12.688;2022-07-30T09:42:23;18.70;99.90
22153;DHT22;11242;50.536;12.688;2022-07-30T09:44:52;18.90;99.90
22153;DHT22;11242;50.536;12.688;2022-07-30T09:47:42;19.00;99.90
22153;DHT22;11242;50.536;12.688;2022-07-30T09:50:17;18.80;99.90
22153;DHT22;11242;50.536;12.688;2022-07-30T09:52:45;18.40;99.90
22153;DHT22;11242;50.536;12.688;2022-07-30T09:55:12;18.20;99.90
22153;DHT22;11242;50.536;12.688;2022-07-30T09:57:59;17.90;99.90
22153;DHT22;11242;50.536;12.688;2022-07-30T10:00:27;17.80;99.90
22153;DHT22;11242;50.536;12.688;2022-07-30T10:03:22;17.60;99.90
22153;DHT22;11242;50.536;12.688;2022-07-30T10:06:09;17.60;99.90
22153;DHT22;11242;50.536;12.688;2022-07-30T10:11:09;17.60;99.90
22153;DHT22;11242;50.536;12.688;2022-07-30T10:13:36;17.50;99.90
22153;DHT22;11242;50.536;12.688;2022-07-30T10:16:02;17.50;99.90
22153;DHT22;11242;50.536;12.688;2022-07-30T10:18:30;17.60;99.90
22153;DHT22;11242;50.536;12.688;2022-07-30T10:21:14;17.60;99.90
22153;DHT22;11242;50.536;12.688;2022-07-30T10:23:58;17.70;99.90
22153;DHT22;11242;50.536;12.688;2022-07-30T10:27:02;17.80;99.90
22153;DHT22;11242;50.536;12.688;2022-07-30T10:29:49;18.10;99.90
22153;DHT22;11242;50.536;12.688;2022-07-30T10:32:15;18.20;99.90
22153;DHT22;11242;50.536;12.688;2022-07-30T10:34:41;18.10;99.90
22153;DHT22;11242;50.536;12.688;2022-07-30T10:37:08;17.70;99.90
22153;DHT22;11242;50.536;12.688;2022-07-30T10:39:44;17.20;99.90
22153;DHT22;11242;50.536;12.688;2022-07-30T10:42:51;16.70;99.90
22153;DHT22;11242;50.536;12.688;2022-07-30T10:48:12;16.10;99.90
22153;DHT22;11242;50.536;12.688;2022-07-30T10:50:49;15.90;99.90
22153;DHT22;11242;50.536;12.688;2022-07-30T10:53:37;15.80;99.90
22153;DHT22;11242;50.536;12.688;2022-07-30T10:56:29;15.70;99.90
22153;DHT22;11242;50.536;12.688;2022-07-30T10:59:10;15.60;99.90
22153;DHT22;11242;50.536;12.688;2022-07-30T11:04:19;15.50;99.90
22153;DHT22;11242;50.536;12.688;2022-07-30T11:06:45;15.50;99.90
22153;DHT22;11242;50.536;12.688;2022-07-30T11:09:33;15.40;99.90
22153;DHT22;11242;50.536;12.688;2022-07-30T11:12:00;15.40;99.90
22153;DHT22;11242;50.536;12.688;2022-07-30T11:17:10;15.40;99.90
22153;DHT22;11242;50.536;12.688;2022-07-30T11:22:33;15.50;99.90
22153;DHT22;11242;50.536;12.688;2022-07-30T11:27:47;15.40;99.90
22153;DHT22;11242;50.536;12.688;2022-07-30T11:32:56;15.60;99.90
22153;DHT22;11242;50.536;12.688;2022-07-30T11:35:41;15.60;99.90
22153;DHT22;11242;50.536;12.688;2022-07-30T11:38:08;15.60;99.90
22153;DHT22;11242;50.536;12.688;2022-07-30T11:43:26;15.50;99.90
22153;DHT22;11242;50.536;12.688;2022-07-30T11:46:14;15.50;99.90
22153;DHT22;11242;50.536;12.688;2022-07-30T11:48:57;15.40;99.90
22153;DHT22;11242;50.536;12.688;2022-07-30T11:51:23;15.50;99.90
22153;DHT22;11242;50.536;12.688;2022-07-30T11:54:02;15.70;99.90
22153;DHT22;11242;50.536;12.688;2022-07-30T11:56:28;15.70;99.90
22153;DHT22;11242;50.536;12.688;2022-07-30T11:59:07;15.70;99.90
22153;DHT22;11242;50.536;12.688;2022-07-30T12:01:34;15.70;99.90
22153;DHT22;11242;50.536;12.688;2022-07-30T12:04:04;15.70;99.90
22153;DHT22;11242;50.536;12.688;2022-07-30T12:06:30;15.60;99.90
22153;DHT22;11242;50.536;12.688;2022-07-30T12:08:57;15.60;99.90
22153;DHT22;11242;50.536;12.688;2022-07-30T12:11:23;15.70;99.90
22153;DHT22;11242;50.536;12.688;2022-07-30T12:13:59;15.70;99.90
22153;DHT22;11242;50.536;12.688;2022-07-30T12:16:27;15.60;99.90
22153;DHT22;11242;50.536;12.688;2022-07-30T12:18:53;15.50;99.90
22153;DHT22;11242;50.536;12.688;2022-07-30T12:21:19;15.50;99.90
22153;DHT22;11242;50.536;12.688;2022-07-30T12:23:56;15.50;99.90
22153;DHT22;11242;50.536;12.688;2022-07-30T12:26:27;15.50;99.90
22153;DHT22;11242;50.536;12.688;2022-07-30T12:29:05;15.60;99.90
22153;DHT22;11242;50.536;12.688;2022-07-30T12:31:34;15.70;99.90
22153;DHT22;11242;50.536;12.688;2022-07-30T12:34:00;15.70;99.90
22153;DHT22;11242;50.536;12.688;2022-07-30T12:36:29;15.60;99.90
22153;DHT22;11242;50.536;12.688;2022-07-30T12:38:55;15.50;99.90
22153;DHT22;11242;50.536;12.688;2022-07-30T12:41:23;15.50;99.90
22153;DHT22;11242;50.536;12.688;2022-07-30T12:44:04;15.50;99.90
22153;DHT22;11242;50.536;12.688;2022-07-30T12:46:37;15.60;99.90
22153;DHT22;11242;50.536;12.688;2022-07-30T12:49:04;15.60;99.90
22153;DHT22;11242;50.536;12.688;2022-07-30T12:51:35;15.70;99.90
22153;DHT22;11242;50.536;12.688;2022-07-30T12:54:15;15.70;99.90
22153;DHT22;11242;50.536;12.688;2022-07-30T12:56:58;15.80;99.90
22153;DHT22;11242;50.536;12.688;2022-07-30T12:59:24;15.90;99.90
22153;DHT22;11242;50.536;12.688;2022-07-30T13:01:53;15.80;99.90
22153;DHT22;11242;50.536;12.688;2022-07-30T13:04:19;15.80;99.90
22153;DHT22;11242;50.536;12.688;2022-07-30T13:07:08;15.80;99.90
22153;DHT22;11242;50.536;12.688;2022-07-30T13:09:35;15.70;99.90
22153;DHT22;11242;50.536;12.688;2022-07-30T13:12:01;15.70;99.90
22153;DHT22;11242;50.536;12.688;2022-07-30T13:14:27;15.70;99.90
22153;DHT22;11242;50.536;12.688;2022-07-30T13:16:53;15.80;99.90
22153;DHT22;11242;50.536;12.688;2022-07-30T13:19:24;15.80;99.90
22153;DHT22;11242;50.536;12.688;2022-07-30T13:21:49;15.90;99.90
22153;DHT22;11242;50.536;12.688;2022-07-30T13:24:16;15.80;99.90
22153;DHT22;11242;50.536;12.688;2022-07-30T13:26:41;15.80;99.90
22153;DHT22;11242;50.536;12.688;2022-07-30T13:29:07;15.80;99.90
22153;DHT22;11242;50.536;12.688;2022-07-30T13:31:34;15.80;99.90
22153;DHT22;11242;50.536;12.688;2022-07-30T13:34:00;15.80;99.90
22153;DHT22;11242;50.536;12.688;2022-07-30T13:36:26;15.80;99.90
22153;DHT22;11242;50.536;12.688;2022-07-30T13:38:52;15.90;99.90
22153;DHT22;11242;50.536;12.688;2022-07-30T13:41:18;16.10;99.90
22153;DHT22;11242;50.536;12.688;2022-07-30T13:43:43;16.30;99.90
22153;DHT22;11242;50.536;12.688;2022-07-30T13:46:09;16.40;99.90
22153;DHT22;11242;50.536;12.688;2022-07-30T13:48:34;16.50;99.90
22153;DHT22;11242;50.536;12.688;2022-07-30T13:51:01;16.70;99.90
22153;DHT22;11242;50.536;12.688;2022-07-30T13:53:27;16.80;99.90
22153;DHT22;11242;50.536;12.688;2022-07-30T13:55:53;16.70;99.90
22153;DHT22;11242;50.536;12.688;2022-07-30T13:58:19;16.90;99.90
22153;DHT22;11242;50.536;12.688;2022-07-30T14:00:44;17.30;99.90
22153;DHT22;11242;50.536;12.688;2022-07-30T14:03:12;17.40;99.90
22153;DHT22;11242;50.536;12.688;2022-07-30T14:05:38;17.40;99.90
22153;DHT22;11242;50.536;12.688;2022-07-30T14:08:05;17.40;99.90
22153;DHT22;11242;50.536;12.688;2022-07-30T14:10:32;17.50;99.90
22153;DHT22;11242;50.536;12.688;2022-07-30T14:12:59;17.60;99.90
22153;DHT22;11242;50.536;12.688;2022-07-30T14:15:27;17.70;99.90
22153;DHT22;11242;50.536;12.688;2022-07-30T14:17:53;17.70;99.90
22153;DHT22;11242;50.536;12.688;2022-07-30T14:20:19;17.70;99.90
22153;DHT22;11242;50.536;12.688;2022-07-30T14:22:45;17.50;99.90
22153;DHT22;11242;50.536;12.688;2022-07-30T14:25:11;17.30;99.90
22153;DHT22;11242;50.536;12.688;2022-07-30T14:27:37;17.40;99.90
22153;DHT22;11242;50.536;12.688;2022-07-30T14:30:04;17.50;99.90
22153;DHT22;11242;50.536;12.688;2022-07-30T14:32:31;17.60;99.90
22153;DHT22;11242;50.536;12.688;2022-07-30T14:34:56;17.60;99.90
22153;DHT22;11242;50.536;12.688;2022-07-30T14:37:22;17.60;99.90
22153;DHT22;11242;50.536;12.688;2022-07-30T14:39:48;17.80;99.90
22153;DHT22;11242;50.536;12.688;2022-07-30T14:42:14;18.10;99.90
22153;DHT22;11242;50.536;12.688;2022-07-30T14:44:39;18.40;99.90
22153;DHT22;11242;50.536;12.688;2022-07-30T14:47:05;18.50;99.90
22153;DHT22;11242;50.536;12.688;2022-07-30T14:49:31;18.50;99.90
22153;DHT22;11242;50.536;12.688;2022-07-30T14:51:56;18.70;99.90
22153;DHT22;11242;50.536;12.688;2022-07-30T14:54:22;18.60;99.90
22153;DHT22;11242;50.536;12.688;2022-07-30T14:56:48;18.60;99.90
22153;DHT22;11242;50.536;12.688;2022-07-30T14:59:14;18.40;99.90
22153;DHT22;11242;50.536;12.688;2022-07-30T15:01:40;18.40;99.90
22153;DHT22;11242;50.536;12.688;2022-07-30T15:04:06;18.30;99.90
22153;DHT22;11242;50.536;12.688;2022-07-30T15:06:34;18.10;99.90
22153;DHT22;11242;50.536;12.688;2022-07-30T15:09:00;18.10;99.90
22153;DHT22;11242;50.536;12.688;2022-07-30T15:11:26;18.10;99.90
22153;DHT22;11242;50.536;12.688;2022-07-30T15:13:51;18.00;99.90
22153;DHT22;11242;50.536;12.688;2022-07-30T15:16:18;17.90;99.90
22153;DHT22;11242;50.536;12.688;2022-07-30T15:18:44;17.90;99.90
22153;DHT22;11242;50.536;12.688;2022-07-30T15:21:10;17.90;99.90
22153;DHT22;11242;50.536;12.688;2022-07-30T15:23:37;17.90;99.90
22153;DHT22;11242;50.536;12.688;2022-07-30T15:26:03;17.90;99.90
22153;DHT22;11242;50.536;12.688;2022-07-30T15:28:28;18.00;99.90
22153;DHT22;11242;50.536;12.688;2022-07-30T15:30:54;18.00;99.90
22153;DHT22;11242;50.536;12.688;2022-07-30T15:33:20;18.20;99.90
22153;DHT22;11242;50.536;12.688;2022-07-30T15:35:45;18.40;99.90
22153;DHT22;11242;50.536;12.688;2022-07-30T15:38:11;18.50;99.90
22153;DHT22;11242;50.536;12.688;2022-07-30T15:40:37;18.40;99.90
22153;DHT22;11242;50.536;12.688;2022-07-30T15:43:03;18.20;99.90
22153;DHT22;11242;50.536;12.688;2022-07-30T15:45:28;17.90;99.90
22153;DHT22;11242;50.536;12.688;2022-07-30T15:47:54;17.90;99.90
22153;DHT22;11242;50.536;12.688;2022-07-30T15:50:19;17.90;99.90
22153;DHT22;11242;50.536;12.688;2022-07-30T15:52:45;17.80;99.90
22153;DHT22;11242;50.536;12.688;2022-07-30T15:55:11;17.80;99.90
22153;DHT22;11242;50.536;12.688;2022-07-30T15:57:36;17.70;99.90
22153;DHT22;11242;50.536;12.688;2022-07-30T16:00:04;17.70;99.90
22153;DHT22;11242;50.536;12.688;2022-07-30T16:02:37;17.90;99.90